Outing, Minnesota
Current Conditions -  °F | °C
As of 10:16 PM on Monday 22 Dec 2014 (Local Time) from KXVG Reporting Station
Unknown Precip Unknown Precip  
Wind Chill: 34°   Ceiling: 600
Heat Index: 34°   Visibility: 3mi
Dew Point: 32°   Wind: 3mph
Humidity: 93%   Direction: 70°ENE
Pressure: 29.69"   Gusts: NA
Location:  46.82°N, 93.95°W
Report Text: KXVG 230416Z AUTO 07003KT 3SM UP OVC006 01/00 A2969 RMK AO2
Loading
Personal Weather Stations






























Interactive Weather Map New forecast layout! Learn more

10-Day Weather Forecast

Advertisements
Track Severe Weather on mobile